sensor_id;sensor_type;location;lat;lon;timestamp;P1;durP1;ratioP1;P2;durP2;ratioP2
5042;SDS011;2540;50.928;6.856;2023-11-19T00:00:28;0.70;;;0.70;;
5042;SDS011;2540;50.928;6.856;2023-11-19T00:02:54;1.00;;;0.90;;
5042;SDS011;2540;50.928;6.856;2023-11-19T00:05:19;1.03;;;0.93;;
5042;SDS011;2540;50.928;6.856;2023-11-19T00:07:44;1.27;;;0.70;;
5042;SDS011;2540;50.928;6.856;2023-11-19T00:10:13;1.00;;;0.87;;
5042;SDS011;2540;50.928;6.856;2023-11-19T00:12:44;0.80;;;0.80;;
5042;SDS011;2540;50.928;6.856;2023-11-19T00:15:10;0.90;;;0.90;;
5042;SDS011;2540;50.928;6.856;2023-11-19T00:17:39;5.40;;;0.97;;
5042;SDS011;2540;50.928;6.856;2023-11-19T00:20:11;2.00;;;0.93;;
5042;SDS011;2540;50.928;6.856;2023-11-19T00:22:37;1.33;;;0.70;;
5042;SDS011;2540;50.928;6.856;2023-11-19T00:25:02;0.63;;;0.60;;
5042;SDS011;2540;50.928;6.856;2023-11-19T00:27:28;1.00;;;0.80;;
5042;SDS011;2540;50.928;6.856;2023-11-19T00:29:53;4.13;;;1.13;;
5042;SDS011;2540;50.928;6.856;2023-11-19T00:32:19;1.00;;;0.70;;
5042;SDS011;2540;50.928;6.856;2023-11-19T00:34:44;1.43;;;0.70;;
5042;SDS011;2540;50.928;6.856;2023-11-19T00:37:10;1.43;;;0.90;;
5042;SDS011;2540;50.928;6.856;2023-11-19T00:39:35;0.80;;;0.80;;
5042;SDS011;2540;50.928;6.856;2023-11-19T00:42:00;0.80;;;0.70;;
5042;SDS011;2540;50.928;6.856;2023-11-19T00:44:26;0.80;;;0.80;;
5042;SDS011;2540;50.928;6.856;2023-11-19T00:46:51;1.00;;;0.90;;
5042;SDS011;2540;50.928;6.856;2023-11-19T00:49:16;6.33;;;0.80;;
5042;SDS011;2540;50.928;6.856;2023-11-19T00:51:42;0.67;;;0.67;;
5042;SDS011;2540;50.928;6.856;2023-11-19T00:54:07;0.90;;;0.90;;
5042;SDS011;2540;50.928;6.856;2023-11-19T00:56:35;0.83;;;0.83;;
5042;SDS011;2540;50.928;6.856;2023-11-19T00:59:02;0.83;;;0.70;;
5042;SDS011;2540;50.928;6.856;2023-11-19T01:01:27;0.70;;;0.60;;
5042;SDS011;2540;50.928;6.856;2023-11-19T01:03:52;0.70;;;0.70;;
5042;SDS011;2540;50.928;6.856;2023-11-19T01:06:30;0.60;;;0.60;;
5042;SDS011;2540;50.928;6.856;2023-11-19T01:08:56;2.40;;;0.80;;
5042;SDS011;2540;50.928;6.856;2023-11-19T01:11:25;1.17;;;0.87;;
5042;SDS011;2540;50.928;6.856;2023-11-19T01:13:51;1.63;;;0.80;;
5042;SDS011;2540;50.928;6.856;2023-11-19T01:16:17;0.60;;;0.60;;
5042;SDS011;2540;50.928;6.856;2023-11-19T01:18:43;1.23;;;0.80;;
5042;SDS011;2540;50.928;6.856;2023-11-19T01:21:09;1.77;;;0.80;;
5042;SDS011;2540;50.928;6.856;2023-11-19T01:23:35;1.73;;;0.70;;
5042;SDS011;2540;50.928;6.856;2023-11-19T01:26:00;0.70;;;0.70;;
5042;SDS011;2540;50.928;6.856;2023-11-19T01:28:25;0.93;;;0.73;;
5042;SDS011;2540;50.928;6.856;2023-11-19T01:30:51;0.80;;;0.80;;
5042;SDS011;2540;50.928;6.856;2023-11-19T01:33:16;4.30;;;0.87;;
5042;SDS011;2540;50.928;6.856;2023-11-19T01:35:42;0.90;;;0.70;;
5042;SDS011;2540;50.928;6.856;2023-11-19T01:38:07;3.50;;;0.97;;
5042;SDS011;2540;50.928;6.856;2023-11-19T01:40:36;5.20;;;1.00;;
5042;SDS011;2540;50.928;6.856;2023-11-19T01:43:02;1.97;;;1.00;;
5042;SDS011;2540;50.928;6.856;2023-11-19T01:45:28;1.03;;;1.03;;
5042;SDS011;2540;50.928;6.856;2023-11-19T01:47:57;3.23;;;1.00;;
5042;SDS011;2540;50.928;6.856;2023-11-19T01:50:24;2.10;;;1.13;;
5042;SDS011;2540;50.928;6.856;2023-11-19T01:52:50;1.63;;;0.90;;
5042;SDS011;2540;50.928;6.856;2023-11-19T01:55:19;8.03;;;1.33;;
5042;SDS011;2540;50.928;6.856;2023-11-19T01:57:45;2.37;;;1.30;;
5042;SDS011;2540;50.928;6.856;2023-11-19T02:00:11;2.43;;;1.40;;
5042;SDS011;2540;50.928;6.856;2023-11-19T02:02:37;5.57;;;1.27;;
5042;SDS011;2540;50.928;6.856;2023-11-19T02:05:04;4.87;;;1.57;;
5042;SDS011;2540;50.928;6.856;2023-11-19T02:07:30;5.90;;;1.83;;
5042;SDS011;2540;50.928;6.856;2023-11-19T02:09:56;5.10;;;2.30;;
5042;SDS011;2540;50.928;6.856;2023-11-19T02:12:24;3.90;;;2.20;;
5042;SDS011;2540;50.928;6.856;2023-11-19T02:14:49;1.70;;;1.20;;
5042;SDS011;2540;50.928;6.856;2023-11-19T02:17:27;5.60;;;1.90;;
5042;SDS011;2540;50.928;6.856;2023-11-19T02:19:53;5.97;;;1.27;;
5042;SDS011;2540;50.928;6.856;2023-11-19T02:22:18;8.50;;;1.33;;
5042;SDS011;2540;50.928;6.856;2023-11-19T02:24:44;2.90;;;1.37;;
5042;SDS011;2540;50.928;6.856;2023-11-19T02:27:15;6.70;;;1.33;;
5042;SDS011;2540;50.928;6.856;2023-11-19T02:29:46;9.73;;;1.50;;
5042;SDS011;2540;50.928;6.856;2023-11-19T02:32:12;2.87;;;1.10;;
5042;SDS011;2540;50.928;6.856;2023-11-19T02:34:38;4.97;;;1.40;;
5042;SDS011;2540;50.928;6.856;2023-11-19T02:37:03;10.63;;;1.60;;
5042;SDS011;2540;50.928;6.856;2023-11-19T02:39:30;5.47;;;1.57;;
5042;SDS011;2540;50.928;6.856;2023-11-19T02:41:56;5.20;;;1.40;;
5042;SDS011;2540;50.928;6.856;2023-11-19T02:44:21;5.80;;;1.37;;
5042;SDS011;2540;50.928;6.856;2023-11-19T02:46:47;3.07;;;1.27;;
5042;SDS011;2540;50.928;6.856;2023-11-19T02:49:13;6.40;;;1.10;;
5042;SDS011;2540;50.928;6.856;2023-11-19T02:51:39;4.20;;;1.33;;
5042;SDS011;2540;50.928;6.856;2023-11-19T02:54:04;4.27;;;1.60;;
5042;SDS011;2540;50.928;6.856;2023-11-19T02:56:29;3.43;;;1.50;;
5042;SDS011;2540;50.928;6.856;2023-11-19T02:58:59;6.20;;;1.47;;
5042;SDS011;2540;50.928;6.856;2023-11-19T03:01:25;8.50;;;2.10;;
5042;SDS011;2540;50.928;6.856;2023-11-19T03:03:58;9.47;;;1.70;;
5042;SDS011;2540;50.928;6.856;2023-11-19T03:06:26;7.93;;;1.70;;
5042;SDS011;2540;50.928;6.856;2023-11-19T03:08:52;7.70;;;1.90;;
5042;SDS011;2540;50.928;6.856;2023-11-19T03:11:17;1.77;;;1.40;;
5042;SDS011;2540;50.928;6.856;2023-11-19T03:13:43;6.97;;;1.60;;
5042;SDS011;2540;50.928;6.856;2023-11-19T03:16:08;10.53;;;1.50;;
5042;SDS011;2540;50.928;6.856;2023-11-19T03:18:33;6.90;;;1.53;;
5042;SDS011;2540;50.928;6.856;2023-11-19T03:20:59;5.03;;;1.20;;
5042;SDS011;2540;50.928;6.856;2023-11-19T03:23:24;14.00;;;1.90;;
5042;SDS011;2540;50.928;6.856;2023-11-19T03:25:52;6.20;;;1.60;;
5042;SDS011;2540;50.928;6.856;2023-11-19T03:28:18;6.50;;;1.50;;
5042;SDS011;2540;50.928;6.856;2023-11-19T03:30:43;6.80;;;1.70;;
5042;SDS011;2540;50.928;6.856;2023-11-19T03:33:08;18.13;;;1.87;;
5042;SDS011;2540;50.928;6.856;2023-11-19T03:35:34;7.57;;;1.90;;
5042;SDS011;2540;50.928;6.856;2023-11-19T03:37:59;5.73;;;1.40;;
5042;SDS011;2540;50.928;6.856;2023-11-19T03:40:24;12.80;;;1.67;;
5042;SDS011;2540;50.928;6.856;2023-11-19T03:42:50;11.07;;;1.77;;
5042;SDS011;2540;50.928;6.856;2023-11-19T03:45:15;12.30;;;2.33;;
5042;SDS011;2540;50.928;6.856;2023-11-19T03:47:41;11.63;;;2.07;;
5042;SDS011;2540;50.928;6.856;2023-11-19T03:50:06;3.87;;;1.70;;
5042;SDS011;2540;50.928;6.856;2023-11-19T03:52:35;14.67;;;1.77;;
5042;SDS011;2540;50.928;6.856;2023-11-19T03:55:00;10.37;;;1.77;;
5042;SDS011;2540;50.928;6.856;2023-11-19T03:57:27;12.87;;;2.33;;
5042;SDS011;2540;50.928;6.856;2023-11-19T03:59:53;10.53;;;1.60;;
5042;SDS011;2540;50.928;6.856;2023-11-19T04:02:18;6.73;;;1.70;;
5042;SDS011;2540;50.928;6.856;2023-11-19T04:04:43;14.53;;;2.07;;
5042;SDS011;2540;50.928;6.856;2023-11-19T04:07:08;11.20;;;2.43;;
5042;SDS011;2540;50.928;6.856;2023-11-19T04:09:34;9.23;;;1.70;;
5042;SDS011;2540;50.928;6.856;2023-11-19T04:11:59;10.37;;;2.10;;
5042;SDS011;2540;50.928;6.856;2023-11-19T04:14:25;10.33;;;1.80;;
5042;SDS011;2540;50.928;6.856;2023-11-19T04:16:50;13.00;;;1.60;;
5042;SDS011;2540;50.928;6.856;2023-11-19T04:19:16;11.60;;;2.43;;
5042;SDS011;2540;50.928;6.856;2023-11-19T04:21:42;8.47;;;1.80;;
5042;SDS011;2540;50.928;6.856;2023-11-19T04:24:08;14.80;;;2.00;;
5042;SDS011;2540;50.928;6.856;2023-11-19T04:26:39;9.10;;;1.67;;
5042;SDS011;2540;50.928;6.856;2023-11-19T04:29:14;10.30;;;1.93;;
5042;SDS011;2540;50.928;6.856;2023-11-19T04:31:40;6.47;;;1.40;;
5042;SDS011;2540;50.928;6.856;2023-11-19T04:34:06;12.90;;;2.47;;
5042;SDS011;2540;50.928;6.856;2023-11-19T04:36:31;12.83;;;2.30;;
5042;SDS011;2540;50.928;6.856;2023-11-19T04:38:58;8.93;;;1.73;;
5042;SDS011;2540;50.928;6.856;2023-11-19T04:41:24;13.20;;;2.93;;
5042;SDS011;2540;50.928;6.856;2023-11-19T04:43:49;20.40;;;3.40;;
5042;SDS011;2540;50.928;6.856;2023-11-19T04:46:15;9.50;;;1.73;;
5042;SDS011;2540;50.928;6.856;2023-11-19T04:48:40;17.30;;;2.83;;
5042;SDS011;2540;50.928;6.856;2023-11-19T04:51:06;9.50;;;2.00;;
5042;SDS011;2540;50.928;6.856;2023-11-19T04:53:31;6.63;;;2.23;;
5042;SDS011;2540;50.928;6.856;2023-11-19T04:55:57;10.30;;;2.53;;
5042;SDS011;2540;50.928;6.856;2023-11-19T04:58:22;11.80;;;2.13;;
5042;SDS011;2540;50.928;6.856;2023-11-19T05:00:47;9.90;;;2.17;;
5042;SDS011;2540;50.928;6.856;2023-11-19T05:03:12;7.33;;;1.83;;
5042;SDS011;2540;50.928;6.856;2023-11-19T05:05:38;11.20;;;1.70;;
5042;SDS011;2540;50.928;6.856;2023-11-19T05:08:03;9.03;;;1.63;;
5042;SDS011;2540;50.928;6.856;2023-11-19T05:10:28;13.17;;;1.77;;
5042;SDS011;2540;50.928;6.856;2023-11-19T05:12:54;14.10;;;1.77;;
5042;SDS011;2540;50.928;6.856;2023-11-19T05:15:21;5.70;;;1.73;;
5042;SDS011;2540;50.928;6.856;2023-11-19T05:17:46;11.03;;;2.37;;
5042;SDS011;2540;50.928;6.856;2023-11-19T05:20:12;11.30;;;2.00;;
5042;SDS011;2540;50.928;6.856;2023-11-19T05:22:40;15.27;;;2.30;;
5042;SDS011;2540;50.928;6.856;2023-11-19T05:25:06;9.57;;;2.00;;
5042;SDS011;2540;50.928;6.856;2023-11-19T05:27:32;20.07;;;2.20;;
5042;SDS011;2540;50.928;6.856;2023-11-19T05:29:57;14.80;;;1.83;;
5042;SDS011;2540;50.928;6.856;2023-11-19T05:32:22;10.30;;;2.13;;
5042;SDS011;2540;50.928;6.856;2023-11-19T05:34:48;14.87;;;2.67;;
5042;SDS011;2540;50.928;6.856;2023-11-19T05:37:13;13.10;;;2.57;;
5042;SDS011;2540;50.928;6.856;2023-11-19T05:39:39;12.60;;;3.00;;
5042;SDS011;2540;50.928;6.856;2023-11-19T05:42:04;22.87;;;2.77;;
5042;SDS011;2540;50.928;6.856;2023-11-19T05:44:30;14.30;;;4.50;;
5042;SDS011;2540;50.928;6.856;2023-11-19T05:46:55;13.83;;;2.33;;
5042;SDS011;2540;50.928;6.856;2023-11-19T05:49:20;18.73;;;2.07;;
5042;SDS011;2540;50.928;6.856;2023-11-19T05:51:46;19.00;;;3.70;;
5042;SDS011;2540;50.928;6.856;2023-11-19T05:54:11;14.53;;;3.17;;
5042;SDS011;2540;50.928;6.856;2023-11-19T05:56:38;28.10;;;4.50;;
5042;SDS011;2540;50.928;6.856;2023-11-19T05:59:03;18.77;;;4.10;;
5042;SDS011;2540;50.928;6.856;2023-11-19T06:01:32;17.80;;;2.80;;
5042;SDS011;2540;50.928;6.856;2023-11-19T06:03:59;12.93;;;2.30;;
5042;SDS011;2540;50.928;6.856;2023-11-19T06:06:25;18.30;;;2.20;;
5042;SDS011;2540;50.928;6.856;2023-11-19T06:08:51;23.10;;;2.20;;
5042;SDS011;2540;50.928;6.856;2023-11-19T06:11:16;11.03;;;2.60;;
5042;SDS011;2540;50.928;6.856;2023-11-19T06:13:45;13.90;;;2.63;;
5042;SDS011;2540;50.928;6.856;2023-11-19T06:16:11;16.63;;;3.17;;
5042;SDS011;2540;50.928;6.856;2023-11-19T06:18:37;15.60;;;2.60;;
5042;SDS011;2540;50.928;6.856;2023-11-19T06:21:02;21.17;;;2.90;;
5042;SDS011;2540;50.928;6.856;2023-11-19T06:23:28;10.13;;;2.23;;
5042;SDS011;2540;50.928;6.856;2023-11-19T06:25:53;9.60;;;1.63;;
5042;SDS011;2540;50.928;6.856;2023-11-19T06:28:18;30.33;;;3.50;;
5042;SDS011;2540;50.928;6.856;2023-11-19T06:30:44;21.90;;;2.20;;
5042;SDS011;2540;50.928;6.856;2023-11-19T06:33:12;15.93;;;2.73;;
5042;SDS011;2540;50.928;6.856;2023-11-19T06:35:38;22.10;;;2.93;;
5042;SDS011;2540;50.928;6.856;2023-11-19T06:38:03;9.43;;;2.67;;
5042;SDS011;2540;50.928;6.856;2023-11-19T06:40:32;19.77;;;2.87;;
5042;SDS011;2540;50.928;6.856;2023-11-19T06:42:57;7.40;;;2.80;;
5042;SDS011;2540;50.928;6.856;2023-11-19T06:45:23;28.50;;;3.50;;
5042;SDS011;2540;50.928;6.856;2023-11-19T06:47:48;19.03;;;2.77;;
5042;SDS011;2540;50.928;6.856;2023-11-19T06:50:13;26.83;;;2.73;;
5042;SDS011;2540;50.928;6.856;2023-11-19T06:52:40;17.23;;;2.17;;
5042;SDS011;2540;50.928;6.856;2023-11-19T06:55:05;21.57;;;3.57;;
5042;SDS011;2540;50.928;6.856;2023-11-19T06:57:31;12.23;;;2.37;;
5042;SDS011;2540;50.928;6.856;2023-11-19T06:59:57;21.60;;;3.60;;
5042;SDS011;2540;50.928;6.856;2023-11-19T07:02:23;17.00;;;2.77;;
5042;SDS011;2540;50.928;6.856;2023-11-19T07:04:48;11.60;;;2.30;;
5042;SDS011;2540;50.928;6.856;2023-11-19T07:07:14;10.07;;;2.77;;
5042;SDS011;2540;50.928;6.856;2023-11-19T07:09:40;17.93;;;3.50;;
5042;SDS011;2540;50.928;6.856;2023-11-19T07:12:05;12.83;;;3.20;;
5042;SDS011;2540;50.928;6.856;2023-11-19T07:14:31;10.87;;;2.60;;
5042;SDS011;2540;50.928;6.856;2023-11-19T07:16:56;10.60;;;2.90;;
5042;SDS011;2540;50.928;6.856;2023-11-19T07:19:22;17.57;;;5.20;;
5042;SDS011;2540;50.928;6.856;2023-11-19T07:21:47;10.03;;;2.23;;
5042;SDS011;2540;50.928;6.856;2023-11-19T07:24:12;15.20;;;2.60;;
5042;SDS011;2540;50.928;6.856;2023-11-19T07:26:41;13.97;;;2.40;;
5042;SDS011;2540;50.928;6.856;2023-11-19T07:29:08;11.67;;;2.27;;
5042;SDS011;2540;50.928;6.856;2023-11-19T07:31:33;17.60;;;3.23;;
5042;SDS011;2540;50.928;6.856;2023-11-19T07:33:59;29.90;;;2.90;;
5042;SDS011;2540;50.928;6.856;2023-11-19T07:36:24;14.17;;;2.47;;
5042;SDS011;2540;50.928;6.856;2023-11-19T07:38:49;20.43;;;3.73;;
5042;SDS011;2540;50.928;6.856;2023-11-19T07:41:15;23.20;;;2.70;;
5042;SDS011;2540;50.928;6.856;2023-11-19T07:43:41;14.07;;;3.30;;
5042;SDS011;2540;50.928;6.856;2023-11-19T07:46:12;11.50;;;2.70;;
5042;SDS011;2540;50.928;6.856;2023-11-19T07:48:41;13.67;;;2.90;;
5042;SDS011;2540;50.928;6.856;2023-11-19T07:51:07;18.77;;;2.83;;
5042;SDS011;2540;50.928;6.856;2023-11-19T07:53:42;16.13;;;2.67;;
5042;SDS011;2540;50.928;6.856;2023-11-19T07:56:07;19.53;;;4.20;;
5042;SDS011;2540;50.928;6.856;2023-11-19T07:58:33;18.83;;;3.10;;
5042;SDS011;2540;50.928;6.856;2023-11-19T08:00:58;16.80;;;2.73;;
5042;SDS011;2540;50.928;6.856;2023-11-19T08:03:24;20.80;;;3.30;;
5042;SDS011;2540;50.928;6.856;2023-11-19T08:05:49;13.20;;;2.60;;
5042;SDS011;2540;50.928;6.856;2023-11-19T08:08:14;27.60;;;2.77;;
5042;SDS011;2540;50.928;6.856;2023-11-19T08:10:40;28.00;;;2.63;;
5042;SDS011;2540;50.928;6.856;2023-11-19T08:13:05;13.10;;;3.10;;
5042;SDS011;2540;50.928;6.856;2023-11-19T08:15:31;14.07;;;2.53;;
5042;SDS011;2540;50.928;6.856;2023-11-19T08:17:59;21.43;;;2.60;;
5042;SDS011;2540;50.928;6.856;2023-11-19T08:20:25;19.70;;;3.37;;
5042;SDS011;2540;50.928;6.856;2023-11-19T08:22:50;19.90;;;3.37;;
5042;SDS011;2540;50.928;6.856;2023-11-19T08:25:15;13.53;;;2.70;;
5042;SDS011;2540;50.928;6.856;2023-11-19T08:27:41;15.80;;;3.90;;
5042;SDS011;2540;50.928;6.856;2023-11-19T08:30:06;17.63;;;2.70;;
5042;SDS011;2540;50.928;6.856;2023-11-19T08:32:33;18.20;;;3.70;;
5042;SDS011;2540;50.928;6.856;2023-11-19T08:34:59;22.50;;;2.90;;
5042;SDS011;2540;50.928;6.856;2023-11-19T08:37:24;20.53;;;3.00;;
5042;SDS011;2540;50.928;6.856;2023-11-19T08:39:50;23.00;;;3.53;;
5042;SDS011;2540;50.928;6.856;2023-11-19T08:42:18;17.50;;;2.80;;
5042;SDS011;2540;50.928;6.856;2023-11-19T08:44:43;13.73;;;3.00;;
5042;SDS011;2540;50.928;6.856;2023-11-19T08:47:14;16.57;;;2.33;;
5042;SDS011;2540;50.928;6.856;2023-11-19T08:49:41;17.83;;;3.40;;
5042;SDS011;2540;50.928;6.856;2023-11-19T08:52:06;20.03;;;2.30;;
5042;SDS011;2540;50.928;6.856;2023-11-19T08:54:34;17.33;;;2.70;;
5042;SDS011;2540;50.928;6.856;2023-11-19T08:56:59;23.60;;;2.63;;
5042;SDS011;2540;50.928;6.856;2023-11-19T08:59:25;22.50;;;3.03;;
5042;SDS011;2540;50.928;6.856;2023-11-19T09:01:51;23.20;;;2.77;;
5042;SDS011;2540;50.928;6.856;2023-11-19T09:04:16;22.70;;;3.23;;
5042;SDS011;2540;50.928;6.856;2023-11-19T09:06:42;17.80;;;2.23;;
5042;SDS011;2540;50.928;6.856;2023-11-19T09:09:07;17.80;;;2.90;;
5042;SDS011;2540;50.928;6.856;2023-11-19T09:11:33;17.43;;;2.50;;
5042;SDS011;2540;50.928;6.856;2023-11-19T09:13:58;25.50;;;2.97;;
5042;SDS011;2540;50.928;6.856;2023-11-19T09:16:23;12.47;;;2.77;;
5042;SDS011;2540;50.928;6.856;2023-11-19T09:18:49;17.57;;;3.00;;
5042;SDS011;2540;50.928;6.856;2023-11-19T09:21:14;10.93;;;2.37;;
5042;SDS011;2540;50.928;6.856;2023-11-19T09:23:45;12.63;;;2.70;;
5042;SDS011;2540;50.928;6.856;2023-11-19T09:26:13;18.83;;;2.63;;
5042;SDS011;2540;50.928;6.856;2023-11-19T09:28:38;20.73;;;2.80;;
5042;SDS011;2540;50.928;6.856;2023-11-19T09:31:12;19.42;;;2.80;;
5042;SDS011;2540;50.928;6.856;2023-11-19T09:33:38;20.47;;;2.93;;
5042;SDS011;2540;50.928;6.856;2023-11-19T09:36:03;16.90;;;5.23;;
5042;SDS011;2540;50.928;6.856;2023-11-19T09:38:29;22.93;;;3.63;;
5042;SDS011;2540;50.928;6.856;2023-11-19T09:40:54;19.33;;;3.00;;
5042;SDS011;2540;50.928;6.856;2023-11-19T09:43:19;17.83;;;4.00;;
5042;SDS011;2540;50.928;6.856;2023-11-19T09:45:47;22.30;;;3.30;;
5042;SDS011;2540;50.928;6.856;2023-11-19T09:48:16;19.70;;;3.30;;
5042;SDS011;2540;50.928;6.856;2023-11-19T09:50:42;11.30;;;1.87;;
5042;SDS011;2540;50.928;6.856;2023-11-19T09:53:08;19.17;;;2.93;;
5042;SDS011;2540;50.928;6.856;2023-11-19T09:55:33;16.70;;;3.37;;
5042;SDS011;2540;50.928;6.856;2023-11-19T09:57:58;8.80;;;2.57;;
5042;SDS011;2540;50.928;6.856;2023-11-19T10:03:18;18.50;;;2.73;;
5042;SDS011;2540;50.928;6.856;2023-11-19T10:05:43;18.17;;;2.53;;
5042;SDS011;2540;50.928;6.856;2023-11-19T10:08:08;17.40;;;3.53;;
5042;SDS011;2540;50.928;6.856;2023-11-19T10:10:35;23.73;;;3.60;;
5042;SDS011;2540;50.928;6.856;2023-11-19T10:13:01;4.80;;;1.67;;
5042;SDS011;2540;50.928;6.856;2023-11-19T10:15:26;20.33;;;3.10;;
5042;SDS011;2540;50.928;6.856;2023-11-19T10:21:03;16.00;;;2.90;;
5042;SDS011;2540;50.928;6.856;2023-11-19T10:23:31;18.10;;;3.50;;
5042;SDS011;2540;50.928;6.856;2023-11-19T10:26:03;27.63;;;4.00;;
5042;SDS011;2540;50.928;6.856;2023-11-19T10:28:38;15.23;;;4.23;;
5042;SDS011;2540;50.928;6.856;2023-11-19T10:31:05;17.37;;;3.00;;
5042;SDS011;2540;50.928;6.856;2023-11-19T10:33:30;12.90;;;2.50;;
5042;SDS011;2540;50.928;6.856;2023-11-19T10:35:56;10.03;;;2.90;;
5042;SDS011;2540;50.928;6.856;2023-11-19T10:38:23;20.67;;;3.77;;
5042;SDS011;2540;50.928;6.856;2023-11-19T10:40:49;17.37;;;2.30;;
5042;SDS011;2540;50.928;6.856;2023-11-19T10:43:15;17.03;;;2.53;;
5042;SDS011;2540;50.928;6.856;2023-11-19T10:45:56;16.07;;;3.83;;
5042;SDS011;2540;50.928;6.856;2023-11-19T10:48:36;19.70;;;3.17;;
5042;SDS011;2540;50.928;6.856;2023-11-19T10:51:02;16.17;;;4.50;;
5042;SDS011;2540;50.928;6.856;2023-11-19T10:53:31;19.00;;;2.70;;
5042;SDS011;2540;50.928;6.856;2023-11-19T10:55:58;12.73;;;2.50;;
5042;SDS011;2540;50.928;6.856;2023-11-19T10:58:24;11.20;;;2.40;;
5042;SDS011;2540;50.928;6.856;2023-11-19T11:01:01;17.57;;;3.30;;
5042;SDS011;2540;50.928;6.856;2023-11-19T11:03:31;21.97;;;2.83;;
5042;SDS011;2540;50.928;6.856;2023-11-19T11:06:01;14.43;;;2.73;;
5042;SDS011;2540;50.928;6.856;2023-11-19T11:08:28;16.43;;;3.00;;
5042;SDS011;2540;50.928;6.856;2023-11-19T11:10:55;20.20;;;2.50;;
5042;SDS011;2540;50.928;6.856;2023-11-19T11:13:22;14.27;;;2.27;;
5042;SDS011;2540;50.928;6.856;2023-11-19T11:15:56;20.23;;;2.97;;
5042;SDS011;2540;50.928;6.856;2023-11-19T11:18:23;13.40;;;2.90;;
5042;SDS011;2540;50.928;6.856;2023-11-19T11:20:49;15.23;;;2.67;;
5042;SDS011;2540;50.928;6.856;2023-11-19T11:23:36;11.30;;;2.17;;
5042;SDS011;2540;50.928;6.856;2023-11-19T11:29:00;19.70;;;3.70;;
5042;SDS011;2540;50.928;6.856;2023-11-19T11:32:08;8.77;;;2.20;;
5042;SDS011;2540;50.928;6.856;2023-11-19T11:34:58;16.40;;;2.73;;
5042;SDS011;2540;50.928;6.856;2023-11-19T11:37:47;9.43;;;2.13;;
5042;SDS011;2540;50.928;6.856;2023-11-19T11:40:15;22.87;;;3.50;;
5042;SDS011;2540;50.928;6.856;2023-11-19T11:42:43;17.37;;;3.03;;
5042;SDS011;2540;50.928;6.856;2023-11-19T11:45:09;22.07;;;3.20;;
5042;SDS011;2540;50.928;6.856;2023-11-19T11:50:12;18.37;;;2.50;;
5042;SDS011;2540;50.928;6.856;2023-11-19T11:53:23;12.40;;;2.43;;
5042;SDS011;2540;50.928;6.856;2023-11-19T11:55:27;12.50;;;1.93;;
5042;SDS011;2540;50.928;6.856;2023-11-19T11:58:05;14.20;;;2.47;;
5042;SDS011;2540;50.928;6.856;2023-11-19T12:00:31;10.23;;;2.17;;
5042;SDS011;2540;50.928;6.856;2023-11-19T12:03:00;13.47;;;2.40;;
5042;SDS011;2540;50.928;6.856;2023-11-19T12:05:26;15.83;;;2.67;;
5042;SDS011;2540;50.928;6.856;2023-11-19T12:07:56;6.93;;;1.83;;
5042;SDS011;2540;50.928;6.856;2023-11-19T12:10:34;11.20;;;2.20;;
5042;SDS011;2540;50.928;6.856;2023-11-19T12:13:06;11.30;;;2.47;;
5042;SDS011;2540;50.928;6.856;2023-11-19T12:15:34;10.87;;;1.97;;
5042;SDS011;2540;50.928;6.856;2023-11-19T12:18:32;11.77;;;2.20;;
5042;SDS011;2540;50.928;6.856;2023-11-19T12:20:57;8.80;;;1.83;;
5042;SDS011;2540;50.928;6.856;2023-11-19T12:23:28;10.40;;;1.60;;
5042;SDS011;2540;50.928;6.856;2023-11-19T12:25:54;9.07;;;2.00;;
5042;SDS011;2540;50.928;6.856;2023-11-19T12:28:20;17.13;;;2.50;;
5042;SDS011;2540;50.928;6.856;2023-11-19T12:30:45;9.30;;;2.40;;
5042;SDS011;2540;50.928;6.856;2023-11-19T12:33:12;11.00;;;2.20;;
5042;SDS011;2540;50.928;6.856;2023-11-19T12:35:41;14.47;;;1.77;;
5042;SDS011;2540;50.928;6.856;2023-11-19T12:38:20;12.33;;;2.00;;
5042;SDS011;2540;50.928;6.856;2023-11-19T12:41:02;22.57;;;2.90;;
5042;SDS011;2540;50.928;6.856;2023-11-19T12:43:31;9.03;;;2.37;;
5042;SDS011;2540;50.928;6.856;2023-11-19T12:45:56;6.97;;;1.97;;
5042;SDS011;2540;50.928;6.856;2023-11-19T12:48:22;9.90;;;2.30;;
5042;SDS011;2540;50.928;6.856;2023-11-19T12:50:54;6.60;;;2.40;;
5042;SDS011;2540;50.928;6.856;2023-11-19T12:53:22;20.67;;;4.70;;
5042;SDS011;2540;50.928;6.856;2023-11-19T12:55:48;6.50;;;2.03;;
5042;SDS011;2540;50.928;6.856;2023-11-19T12:58:33;11.57;;;2.37;;
5042;SDS011;2540;50.928;6.856;2023-11-19T13:01:03;17.13;;;3.03;;
5042;SDS011;2540;50.928;6.856;2023-11-19T13:03:34;14.23;;;3.03;;
5042;SDS011;2540;50.928;6.856;2023-11-19T13:06:22;8.00;;;2.10;;
5042;SDS011;2540;50.928;6.856;2023-11-19T13:08:47;21.47;;;2.30;;
5042;SDS011;2540;50.928;6.856;2023-11-19T13:11:15;8.20;;;1.77;;
5042;SDS011;2540;50.928;6.856;2023-11-19T13:13:55;9.53;;;1.90;;
5042;SDS011;2540;50.928;6.856;2023-11-19T13:16:22;11.83;;;2.10;;
5042;SDS011;2540;50.928;6.856;2023-11-19T13:18:48;3.43;;;1.43;;
5042;SDS011;2540;50.928;6.856;2023-11-19T13:21:13;14.13;;;2.10;;
5042;SDS011;2540;50.928;6.856;2023-11-19T13:23:38;13.73;;;2.17;;
5042;SDS011;2540;50.928;6.856;2023-11-19T13:26:04;20.63;;;3.50;;
5042;SDS011;2540;50.928;6.856;2023-11-19T13:28:29;13.67;;;1.90;;
5042;SDS011;2540;50.928;6.856;2023-11-19T13:30:54;13.07;;;2.17;;
5042;SDS011;2540;50.928;6.856;2023-11-19T13:33:20;16.30;;;2.07;;
5042;SDS011;2540;50.928;6.856;2023-11-19T13:35:45;20.27;;;2.13;;
5042;SDS011;2540;50.928;6.856;2023-11-19T13:38:10;11.97;;;2.37;;
5042;SDS011;2540;50.928;6.856;2023-11-19T13:40:35;25.97;;;2.67;;
5042;SDS011;2540;50.928;6.856;2023-11-19T13:43:01;13.53;;;2.40;;
5042;SDS011;2540;50.928;6.856;2023-11-19T13:45:26;15.00;;;2.37;;
5042;SDS011;2540;50.928;6.856;2023-11-19T13:50:24;10.50;;;2.30;;
5042;SDS011;2540;50.928;6.856;2023-11-19T13:52:49;12.17;;;2.20;;
5042;SDS011;2540;50.928;6.856;2023-11-19T13:55:15;17.50;;;2.27;;
5042;SDS011;2540;50.928;6.856;2023-11-19T13:57:41;9.93;;;2.17;;
5042;SDS011;2540;50.928;6.856;2023-11-19T14:00:10;7.33;;;2.30;;
5042;SDS011;2540;50.928;6.856;2023-11-19T14:02:38;15.00;;;2.57;;
5042;SDS011;2540;50.928;6.856;2023-11-19T14:05:05;16.97;;;2.63;;
5042;SDS011;2540;50.928;6.856;2023-11-19T14:07:30;14.67;;;2.70;;
5042;SDS011;2540;50.928;6.856;2023-11-19T14:09:56;11.83;;;2.00;;
5042;SDS011;2540;50.928;6.856;2023-11-19T14:12:21;15.40;;;2.53;;
5042;SDS011;2540;50.928;6.856;2023-11-19T14:14:47;12.83;;;2.00;;
5042;SDS011;2540;50.928;6.856;2023-11-19T14:17:12;10.27;;;2.50;;
5042;SDS011;2540;50.928;6.856;2023-11-19T14:19:37;10.47;;;2.40;;
5042;SDS011;2540;50.928;6.856;2023-11-19T14:22:04;12.93;;;2.50;;
5042;SDS011;2540;50.928;6.856;2023-11-19T14:24:29;12.37;;;3.03;;
5042;SDS011;2540;50.928;6.856;2023-11-19T14:26:55;8.23;;;2.00;;
5042;SDS011;2540;50.928;6.856;2023-11-19T14:29:23;16.77;;;2.93;;
5042;SDS011;2540;50.928;6.856;2023-11-19T14:31:48;20.33;;;2.10;;
5042;SDS011;2540;50.928;6.856;2023-11-19T14:34:13;20.00;;;2.47;;
5042;SDS011;2540;50.928;6.856;2023-11-19T14:36:39;9.87;;;2.40;;
5042;SDS011;2540;50.928;6.856;2023-11-19T14:39:04;13.17;;;2.30;;
5042;SDS011;2540;50.928;6.856;2023-11-19T14:41:32;9.97;;;2.40;;
5042;SDS011;2540;50.928;6.856;2023-11-19T14:43:57;8.20;;;1.50;;
5042;SDS011;2540;50.928;6.856;2023-11-19T14:46:22;17.73;;;1.90;;
5042;SDS011;2540;50.928;6.856;2023-11-19T14:48:48;11.37;;;1.50;;
5042;SDS011;2540;50.928;6.856;2023-11-19T14:51:13;16.70;;;2.57;;
5042;SDS011;2540;50.928;6.856;2023-11-19T14:53:38;8.00;;;1.93;;
5042;SDS011;2540;50.928;6.856;2023-11-19T14:56:04;11.77;;;2.43;;
5042;SDS011;2540;50.928;6.856;2023-11-19T14:58:32;11.63;;;2.57;;
5042;SDS011;2540;50.928;6.856;2023-11-19T15:00:57;11.07;;;2.40;;
5042;SDS011;2540;50.928;6.856;2023-11-19T15:03:22;15.07;;;2.63;;
5042;SDS011;2540;50.928;6.856;2023-11-19T15:05:48;15.90;;;2.70;;
5042;SDS011;2540;50.928;6.856;2023-11-19T15:08:13;11.13;;;1.80;;
5042;SDS011;2540;50.928;6.856;2023-11-19T15:10:41;12.30;;;1.93;;
5042;SDS011;2540;50.928;6.856;2023-11-19T15:13:06;12.73;;;2.27;;
5042;SDS011;2540;50.928;6.856;2023-11-19T15:15:32;9.53;;;2.87;;
5042;SDS011;2540;50.928;6.856;2023-11-19T15:17:57;11.13;;;2.93;;